Time;durP1;ratioP1;P1;durP2;ratioP2;P2;SDS_P1;SDS_P2;PMS_P1;PMS_P2;Temp;Humidity;BMP_temperature;BMP_pressure;BME280_temperature;BME280_humidity;BME280_pressure;Samples;Min_cycle;Max_cycle;Signal;HPM_P1;HPM_P2
2021/08/08 00:01:48;;;;;;;;;;;;;;;19.85;81.38;99430.67;1673273;85;21148;-89
2021/08/08 00:04:13;;;;;;;;;;;;;;;19.87;81.21;99428.56;1676371;85;20187;-89
2021/08/08 00:06:39;;;;;;;;;;;;;;;19.85;81.06;99432.01;1678485;85;20151;-89
2021/08/08 00:09:05;;;;;;;;;;;;;;;19.90;80.87;99436.13;1679587;85;20140;-89
2021/08/08 00:11:30;;;;;;;;;;;;;;;19.91;80.68;99428.39;1676272;84;20138;-89
2021/08/08 00:13:56;;;;;;;;;;;;;;;19.90;80.68;99432.11;1677498;84;21074;-89
2021/08/08 00:16:22;;;;;;;;;;;;;;;19.90;80.59;99428.09;1677374;85;20115;-89
2021/08/08 00:18:47;;;;;;;;;;;;;;;19.84;81.05;99429.03;1676069;84;20236;-89
2021/08/08 00:21:13;;;;;;;;;;;;;;;19.74;81.33;99423.70;1680166;84;20133;-89
2021/08/08 00:23:38;;;;;;;;;;;;;;;19.63;81.94;99421.86;1678626;84;20697;-90
2021/08/08 00:26:04;;;;;;;;;;;;;;;19.60;82.43;99422.33;1677915;84;20499;-90
2021/08/08 00:28:29;;;;;;;;;;;;;;;19.57;82.65;99413.95;1679379;85;20139;-90
2021/08/08 00:30:56;;;;;;;;;;;;;;;19.50;83.18;99408.72;1676840;85;20708;-89
2021/08/08 00:33:21;;;;;;;;;;;;;;;19.55;83.06;99407.48;1678791;84;20144;-89
2021/08/08 00:35:47;;;;;;;;;;;;;;;19.53;83.11;99404.23;1678558;83;20148;-89
2021/08/08 00:38:12;;;;;;;;;;;;;;;19.50;83.44;99404.70;1679581;84;22422;-89
2021/08/08 00:40:39;;;;;;;;;;;;;;;19.49;83.76;99403.06;1677400;84;20182;-91
2021/08/08 00:43:10;;;;;;;;;;;;;;;19.50;83.78;99399.34;1677840;85;20642;-89
2021/08/08 00:45:36;;;;;;;;;;;;;;;19.51;83.83;99394.27;1678643;85;20187;-89
2021/08/08 00:48:01;;;;;;;;;;;;;;;19.50;84.02;99396.14;1677109;85;20249;-89
2021/08/08 00:50:27;;;;;;;;;;;;;;;19.48;84.22;99387.53;1671559;85;21027;-89
2021/08/08 00:52:52;;;;;;;;;;;;;;;19.52;83.95;99388.67;1677139;85;20653;-89
2021/08/08 00:55:18;;;;;;;;;;;;;;;19.56;83.81;99395.74;1680667;84;20733;-90
2021/08/08 00:57:43;;;;;;;;;;;;;;;19.58;83.92;99396.81;1679570;85;20131;-89
2021/08/08 01:00:10;;;;;;;;;;;;;;;19.64;83.39;99388.67;1676777;85;20105;-89
2021/08/08 01:02:38;;;;;;;;;;;;;;;19.68;83.29;99385.80;1680226;85;20986;-90
2021/08/08 01:05:09;;;;;;;;;;;;;;;19.69;83.22;99383.42;1674010;85;20159;-89
2021/08/08 01:07:48;;;;;;;;;;;;;;;19.70;83.28;99376.19;1681310;85;20215;-89
2021/08/08 01:10:14;;;;;;;;;;;;;;;19.73;83.08;99379.23;1680880;85;20536;-90
2021/08/08 01:12:39;;;;;;;;;;;;;;;19.77;82.93;99380.13;1676591;84;20146;-89
2021/08/08 01:15:06;;;;;;;;;;;;;;;19.80;82.78;99376.98;1675862;85;21129;-89
2021/08/08 01:17:35;;;;;;;;;;;;;;;19.81;82.67;99374.07;1676395;84;20182;-89
2021/08/08 01:20:08;;;;;;;;;;;;;;;19.81;82.64;99370.55;1680689;85;20099;-90
2021/08/08 01:22:34;;;;;;;;;;;;;;;19.87;82.46;99370.45;1678403;85;20246;-89
2021/08/08 01:25:01;;;;;;;;;;;;;;;19.87;82.37;99372.30;1679976;85;20397;-89
2021/08/08 01:27:29;;;;;;;;;;;;;;;19.84;82.61;99360.70;1676049;84;21165;-88
2021/08/08 01:29:55;;;;;;;;;;;;;;;19.85;82.59;99352.97;1677140;85;20195;-88
2021/08/08 01:32:21;;;;;;;;;;;;;;;19.84;82.69;99348.66;1680374;84;20209;-89
2021/08/08 01:34:47;;;;;;;;;;;;;;;19.83;82.72;99345.70;1680359;85;20245;-89
2021/08/08 01:37:18;;;;;;;;;;;;;;;19.83;82.92;99347.05;1679377;85;20130;-89
2021/08/08 01:39:44;;;;;;;;;;;;;;;19.84;82.79;99339.27;1675398;85;21017;-89
2021/08/08 01:42:10;;;;;;;;;;;;;;;19.90;82.64;99341.00;1666702;84;20178;-89
2021/08/08 01:44:39;;;;;;;;;;;;;;;19.91;82.46;99342.64;1682599;84;20143;-88
2021/08/08 01:47:04;;;;;;;;;;;;;;;19.92;82.39;99329.55;1680132;84;20192;-88
2021/08/08 01:49:30;;;;;;;;;;;;;;;19.94;82.41;99336.81;1673273;85;20127;-88
2021/08/08 01:51:56;;;;;;;;;;;;;;;19.94;82.27;99326.09;1681766;85;21090;-89
2021/08/08 01:54:22;;;;;;;;;;;;;;;19.93;82.21;99332.48;1656251;85;20117;-89
2021/08/08 01:56:47;;;;;;;;;;;;;;;19.94;82.17;99330.11;1678963;85;20144;-89
2021/08/08 01:59:13;;;;;;;;;;;;;;;19.98;81.95;99328.59;1679210;84;20170;-89
2021/08/08 02:01:39;;;;;;;;;;;;;;;19.96;82.04;99318.62;1681449;84;20353;-89
2021/08/08 02:04:18;;;;;;;;;;;;;;;19.97;82.10;99317.58;1684141;84;21055;-89
2021/08/08 02:06:44;;;;;;;;;;;;;;;19.94;82.55;99312.69;1674320;85;20143;-89
2021/08/08 02:09:09;;;;;;;;;;;;;;;19.97;82.52;99303.38;1677437;84;20173;-89
2021/08/08 02:11:35;;;;;;;;;;;;;;;19.97;82.60;99305.52;1682616;83;20142;-89
2021/08/08 02:14:05;;;;;;;;;;;;;;;19.95;82.84;99299.59;1680205;85;20174;-88
2021/08/08 02:16:33;;;;;;;;;;;;;;;19.96;82.97;99298.52;1675540;84;21265;-89
2021/08/08 02:19:00;;;;;;;;;;;;;;;19.95;83.06;99299.59;1676978;85;20155;-89
2021/08/08 02:21:26;;;;;;;;;;;;;;;19.99;83.28;99293.22;1675126;85;20186;-88
2021/08/08 02:23:52;;;;;;;;;;;;;;;20.01;83.21;99288.42;1679203;84;20731;-89
2021/08/08 02:26:18;;;;;;;;;;;;;;;20.02;83.31;99289.52;1677132;85;20464;-89
2021/08/08 02:28:43;;;;;;;;;;;;;;;20.06;83.26;99281.30;1680263;84;21155;-90
2021/08/08 02:31:10;;;;;;;;;;;;;;;20.09;83.07;99283.50;1679752;85;20147;-90
2021/08/08 02:33:36;;;;;;;;;;;;;;;20.13;82.76;99277.66;1679037;85;20127;-89
2021/08/08 02:36:02;;;;;;;;;;;;;;;20.14;82.82;99279.30;1679119;83;20223;-90
2021/08/08 02:38:27;;;;;;;;;;;;;;;20.15;83.03;99268.84;1677603;84;20200;-89
2021/08/08 02:40:53;;;;;;;;;;;;;;;20.20;82.83;99277.00;1684919;84;21101;-89
2021/08/08 02:43:19;;;;;;;;;;;;;;;20.18;82.92;99281.27;1679469;83;20143;-90
2021/08/08 02:45:49;;;;;;;;;;;;;;;20.16;83.29;99271.82;1678743;84;20138;-90
2021/08/08 02:48:12;;;;;;;;;;;;;;;20.17;83.12;99266.22;1679003;85;20133;-89
2021/08/08 02:50:37;;;;;;;;;;;;;;;20.18;83.29;99272.38;1675631;85;20140;-89
2021/08/08 02:53:03;;;;;;;;;;;;;;;20.19;83.36;99265.98;1674473;84;21866;-90
2021/08/08 02:55:28;;;;;;;;;;;;;;;20.19;83.30;99260.61;1672163;84;20149;-89
2021/08/08 02:57:54;;;;;;;;;;;;;;;20.18;83.25;99261.66;1674489;85;20129;-90
2021/08/08 03:00:19;;;;;;;;;;;;;;;20.15;83.29;99247.40;1677231;85;20137;-90
2021/08/08 03:02:45;;;;;;;;;;;;;;;20.06;84.01;99256.38;1677810;85;20159;-90
2021/08/08 03:05:11;;;;;;;;;;;;;;;20.08;83.86;99245.68;1674097;85;20747;-90
2021/08/08 03:07:36;;;;;;;;;;;;;;;20.04;84.25;99247.74;1674519;85;21205;-90
2021/08/08 03:10:04;;;;;;;;;;;;;;;20.03;84.19;99246.94;1673238;85;20138;-90
2021/08/08 03:12:30;;;;;;;;;;;;;;;19.99;84.73;99247.13;1673702;85;20174;-90
2021/08/08 03:14:56;;;;;;;;;;;;;;;20.05;84.50;99246.70;1672822;85;20175;-90
2021/08/08 03:17:22;;;;;;;;;;;;;;;20.03;84.58;99252.30;1674185;85;21082;-89
2021/08/08 03:19:47;;;;;;;;;;;;;;;20.02;84.97;99252.00;1675461;84;20167;-91
2021/08/08 03:22:13;;;;;;;;;;;;;;;20.07;84.70;99254.80;1675471;84;20150;-90
2021/08/08 03:24:38;;;;;;;;;;;;;;;20.09;84.82;99256.70;1674924;84;20144;-90
2021/08/08 03:27:04;;;;;;;;;;;;;;;20.06;84.98;99253.16;1654468;85;20423;-90
2021/08/08 03:29:30;;;;;;;;;;;;;;;20.12;84.88;99245.20;1673816;85;22107;-90
2021/08/08 03:31:55;;;;;;;;;;;;;;;20.14;84.47;99244.45;1674282;85;20144;-90
2021/08/08 03:34:21;;;;;;;;;;;;;;;20.14;84.85;99244.45;1678693;83;20603;-90
2021/08/08 03:36:46;;;;;;;;;;;;;;;20.22;84.48;99246.19;1675122;85;20135;-90
2021/08/08 03:39:12;;;;;;;;;;;;;;;20.23;84.29;99246.48;1676053;84;20461;-89
2021/08/08 03:41:37;;;;;;;;;;;;;;;20.27;84.32;99245.47;1671791;85;21183;-90
2021/08/08 03:44:03;;;;;;;;;;;;;;;20.31;84.04;99247.96;1671938;85;20161;-89
2021/08/08 03:46:29;;;;;;;;;;;;;;;20.33;84.02;99241.81;1677813;84;20189;-90
2021/08/08 03:48:54;;;;;;;;;;;;;;;20.33;83.95;99235.11;1682171;84;20119;-89
2021/08/08 03:51:20;;;;;;;;;;;;;;;20.41;83.64;99228.00;1678144;84;20220;-90
2021/08/08 03:53:45;;;;;;;;;;;;;;;20.44;83.59;99226.17;1678427;84;21086;-89
2021/08/08 03:56:11;;;;;;;;;;;;;;;20.48;83.53;99225.17;1681158;84;20246;-90
2021/08/08 03:58:37;;;;;;;;;;;;;;;20.50;83.22;99219.03;1673805;85;20279;-90
2021/08/08 04:01:03;;;;;;;;;;;;;;;20.55;83.00;99223.66;1677974;85;20449;-90
2021/08/08 04:03:30;;;;;;;;;;;;;;;20.56;83.10;99223.95;1679471;85;20156;-90
2021/08/08 04:05:56;;;;;;;;;;;;;;;20.57;83.00;99224.22;1672971;85;21061;-90
2021/08/08 04:08:22;;;;;;;;;;;;;;;20.51;83.03;99226.53;1678229;85;20209;-90
2021/08/08 04:10:48;;;;;;;;;;;;;;;20.59;82.60;99228.83;1672587;84;20173;-90
2021/08/08 04:13:13;;;;;;;;;;;;;;;20.59;82.44;99250.29;1679823;84;20556;-89
2021/08/08 04:15:39;;;;;;;;;;;;;;;20.51;82.75;99246.66;1652992;85;20148;-90
2021/08/08 04:18:04;;;;;;;;;;;;;;;20.51;83.08;99267.60;1679027;84;21074;-91
2021/08/08 04:20:30;;;;;;;;;;;;;;;20.53;83.28;99267.36;1680272;84;20226;-91
2021/08/08 04:22:55;;;;;;;;;;;;;;;20.47;83.97;99272.35;1675417;84;20137;-90
2021/08/08 04:25:21;;;;;;;;;;;;;;;20.43;84.42;99271.50;1678910;84;20601;-90
2021/08/08 04:27:47;;;;;;;;;;;;;;;20.44;85.11;99279.80;1674350;84;20223;-90
2021/08/08 04:30:12;;;;;;;;;;;;;;;20.51;85.19;99266.77;1677116;84;21144;-90
2021/08/08 04:32:38;;;;;;;;;;;;;;;20.52;86.08;99269.75;1675873;84;21191;-91
2021/08/08 04:35:04;;;;;;;;;;;;;;;20.53;85.95;99257.97;1681703;85;20161;-90
2021/08/08 04:37:29;;;;;;;;;;;;;;;20.54;86.75;99247.51;1674755;85;20199;-90
2021/08/08 04:39:55;;;;;;;;;;;;;;;20.53;87.64;99266.02;1676554;85;20123;-91
2021/08/08 04:42:20;;;;;;;;;;;;;;;20.48;87.75;99256.02;1677378;84;21092;-90
2021/08/08 04:44:46;;;;;;;;;;;;;;;20.45;88.33;99247.12;1681044;84;20398;-91
2021/08/08 04:47:11;;;;;;;;;;;;;;;20.43;88.95;99238.48;1677186;83;20139;-91
2021/08/08 04:49:37;;;;;;;;;;;;;;;20.43;89.38;99242.00;1675787;84;20127;-91
2021/08/08 04:52:03;;;;;;;;;;;;;;;20.45;89.42;99239.87;1676376;84;20185;-90
2021/08/08 04:54:29;;;;;;;;;;;;;;;20.45;89.92;99233.70;1674658;85;21224;-92
2021/08/08 04:56:55;;;;;;;;;;;;;;;20.53;89.20;99236.52;1679270;84;20134;-90
2021/08/08 04:59:20;;;;;;;;;;;;;;;20.53;89.40;99232.48;1679349;85;20534;-90
2021/08/08 05:01:46;;;;;;;;;;;;;;;20.50;89.21;99237.00;1675603;85;20153;-90
2021/08/08 05:04:12;;;;;;;;;;;;;;;20.53;88.94;99241.88;1676645;84;20117;-91
2021/08/08 05:06:37;;;;;;;;;;;;;;;20.51;89.04;99239.95;1676006;84;21067;-90
2021/08/08 05:09:03;;;;;;;;;;;;;;;20.48;89.14;99239.09;1675826;85;20315;-91
2021/08/08 05:11:29;;;;;;;;;;;;;;;20.50;88.96;99240.48;1674637;84;20169;-91
2021/08/08 05:13:55;;;;;;;;;;;;;;;20.49;89.04;99236.70;1675554;83;20154;-90
2021/08/08 05:16:20;;;;;;;;;;;;;;;20.49;88.81;99246.09;1674511;85;20190;-91
2021/08/08 05:18:48;;;;;;;;;;;;;;;20.45;88.97;99253.28;1674231;85;21132;-90
2021/08/08 05:21:13;;;;;;;;;;;;;;;20.47;88.95;99260.28;1671482;85;20149;-90
2021/08/08 05:23:39;;;;;;;;;;;;;;;20.39;89.67;99257.47;1680356;83;20546;-90
2021/08/08 05:26:04;;;;;;;;;;;;;;;20.39;89.71;99260.95;1673757;85;20155;-90
2021/08/08 05:28:30;;;;;;;;;;;;;;;20.33;89.97;99267.29;1677398;85;20139;-90
2021/08/08 05:30:56;;;;;;;;;;;;;;;20.23;91.08;99263.11;1677233;85;21167;-90
2021/08/08 05:33:21;;;;;;;;;;;;;;;20.07;90.85;99268.20;1679238;85;20479;-91
2021/08/08 05:35:48;;;;;;;;;;;;;;;20.34;90.53;99263.56;1674778;85;20190;-90
2021/08/08 05:38:14;;;;;;;;;;;;;;;20.33;90.76;99268.63;1680487;84;20214;-90
2021/08/08 05:40:39;;;;;;;;;;;;;;;20.31;91.05;99269.41;1672276;84;20157;-90
2021/08/08 05:43:05;;;;;;;;;;;;;;;20.26;90.85;99276.03;1670577;85;21089;-91
2021/08/08 05:45:30;;;;;;;;;;;;;;;20.25;91.40;99280.56;1677609;85;20857;-91
2021/08/08 05:47:58;;;;;;;;;;;;;;;20.23;91.09;99284.02;1673934;84;21042;-90
2021/08/08 05:50:24;;;;;;;;;;;;;;;19.95;92.97;99292.05;1677954;84;20138;-90
2021/08/08 05:52:50;;;;;;;;;;;;;;;19.98;93.52;99295.09;1683562;84;20223;-89
2021/08/08 05:55:16;;;;;;;;;;;;;;;20.01;93.07;99302.66;1681361;84;21845;-89
2021/08/08 05:57:42;;;;;;;;;;;;;;;20.05;93.26;99307.80;1671925;85;20290;-89
2021/08/08 06:00:08;;;;;;;;;;;;;;;20.05;93.39;99297.08;1673455;85;20143;-89
2021/08/08 06:02:33;;;;;;;;;;;;;;;20.11;93.22;99298.55;1675165;85;20199;-90
2021/08/08 06:04:59;;;;;;;;;;;;;;;20.12;92.44;99298.81;1672559;84;20119;-89
2021/08/08 06:07:25;;;;;;;;;;;;;;;20.09;92.85;99288.86;1675523;84;21061;-89
2021/08/08 06:09:50;;;;;;;;;;;;;;;20.19;92.72;99298.95;1678695;84;20204;-90
2021/08/08 06:12:16;;;;;;;;;;;;;;;20.30;92.45;99293.78;1675832;84;20130;-89
2021/08/08 06:14:41;;;;;;;;;;;;;;;20.35;92.43;99296.01;1675719;84;20448;-90
2021/08/08 06:17:07;;;;;;;;;;;;;;;20.40;91.39;99296.12;1679846;84;20166;-88
2021/08/08 06:19:32;;;;;;;;;;;;;;;20.50;91.03;99299.49;1673954;85;21061;-89
2021/08/08 06:21:58;;;;;;;;;;;;;;;20.58;91.07;99297.74;1679921;84;20201;-89
2021/08/08 06:24:23;;;;;;;;;;;;;;;20.71;91.27;99305.22;1677006;84;20150;-88
2021/08/08 06:26:49;;;;;;;;;;;;;;;20.74;90.61;99305.56;1678238;85;20127;-89
2021/08/08 06:29:15;;;;;;;;;;;;;;;20.81;89.89;99310.76;1676355;84;20179;-88
2021/08/08 06:31:40;;;;;;;;;;;;;;;20.96;89.25;99308.85;1678462;83;21910;-89
2021/08/08 06:34:06;;;;;;;;;;;;;;;20.98;89.04;99318.80;1678677;84;20292;-89
2021/08/08 06:36:31;;;;;;;;;;;;;;;21.14;88.77;99320.64;1678433;85;20154;-89
2021/08/08 06:39:03;;;;;;;;;;;;;;;21.05;88.60;99321.31;1678544;85;20152;-89
2021/08/08 06:41:25;;;;;;;;;;;;;;;21.14;88.15;99328.70;1678010;84;20501;-89
2021/08/08 06:43:51;;;;;;;;;;;;;;;21.23;88.29;99330.98;1679491;83;21244;-88
2021/08/08 06:46:17;;;;;;;;;;;;;;;21.37;87.06;99337.63;1679989;85;20625;-89
2021/08/08 06:48:43;;;;;;;;;;;;;;;21.43;86.63;99342.55;1678239;84;20146;-89
2021/08/08 06:51:08;;;;;;;;;;;;;;;21.63;86.30;99343.39;1681161;84;20178;-89
2021/08/08 06:53:34;;;;;;;;;;;;;;;21.78;85.59;99340.89;1680811;84;20135;-89
2021/08/08 06:55:59;;;;;;;;;;;;;;;21.92;85.45;99341.84;1658920;85;22598;-89
2021/08/08 06:58:25;;;;;;;;;;;;;;;21.99;83.84;99346.51;1681771;84;20142;-90
2021/08/08 07:00:50;;;;;;;;;;;;;;;22.10;83.45;99344.75;1676154;84;20147;-89
2021/08/08 07:03:16;;;;;;;;;;;;;;;22.15;82.79;99348.28;1678548;84;20126;-89
2021/08/08 07:05:44;;;;;;;;;;;;;;;22.30;82.15;99361.13;1684047;84;20178;-89
2021/08/08 07:08:11;;;;;;;;;;;;;;;22.47;81.76;99363.72;1674376;84;21171;-90
2021/08/08 07:10:37;;;;;;;;;;;;;;;22.46;81.96;99367.47;1677657;85;20145;-91
2021/08/08 07:13:02;;;;;;;;;;;;;;;22.50;82.40;99380.70;1679248;84;20154;-89
2021/08/08 07:15:28;;;;;;;;;;;;;;;22.35;81.99;99383.23;1679676;85;20184;-91
2021/08/08 07:17:53;;;;;;;;;;;;;;;22.36;82.79;99388.91;1681632;84;20222;-91
2021/08/08 07:20:19;;;;;;;;;;;;;;;22.31;83.19;99397.73;1673515;85;21216;-91
2021/08/08 07:22:45;;;;;;;;;;;;;;;22.16;83.38;99403.70;1679806;84;20696;-89
2021/08/08 07:25:10;;;;;;;;;;;;;;;22.07;84.05;99403.86;1676425;83;20148;-88
2021/08/08 07:27:36;;;;;;;;;;;;;;;22.01;84.08;99415.62;1680010;84;20244;-90
2021/08/08 07:30:03;;;;;;;;;;;;;;;21.75;84.30;99400.52;1676614;84;20278;-90
2021/08/08 07:32:28;;;;;;;;;;;;;;;21.73;84.91;99440.24;1676041;85;21285;-89
2021/08/08 07:34:54;;;;;;;;;;;;;;;21.59;85.56;99452.41;1677888;84;20532;-89
2021/08/08 07:37:21;;;;;;;;;;;;;;;21.46;85.41;99445.47;1679535;84;20150;-90
2021/08/08 07:39:47;;;;;;;;;;;;;;;21.37;86.09;99452.31;1661515;85;20506;-90
2021/08/08 07:42:13;;;;;;;;;;;;;;;21.31;86.44;99448.72;1682375;83;20307;-89
2021/08/08 07:44:38;;;;;;;;;;;;;;;21.11;86.36;99460.73;1659502;84;21052;-90
2021/08/08 07:47:04;;;;;;;;;;;;;;;20.98;87.36;99475.83;1674951;84;20151;-90
2021/08/08 07:49:29;;;;;;;;;;;;;;;20.98;87.62;99491.94;1676354;84;20155;-90
2021/08/08 07:51:55;;;;;;;;;;;;;;;20.87;88.43;99486.91;1681642;84;20169;-90
2021/08/08 07:54:21;;;;;;;;;;;;;;;20.83;89.12;99484.94;1682941;83;20516;-90
2021/08/08 07:56:47;;;;;;;;;;;;;;;20.79;89.24;99490.79;1684109;83;21080;-90
2021/08/08 07:59:12;;;;;;;;;;;;;;;20.83;89.48;99501.05;1684038;83;20120;-90
2021/08/08 08:01:38;;;;;;;;;;;;;;;20.61;90.41;99515.89;1678241;84;20210;-90
2021/08/08 08:04:04;;;;;;;;;;;;;;;20.27;92.54;99536.37;1678665;84;20233;-90
2021/08/08 08:06:29;;;;;;;;;;;;;;;20.20;93.42;99504.34;1674725;84;20209;-90
2021/08/08 08:08:55;;;;;;;;;;;;;;;20.17;93.57;99520.08;1677312;84;21250;-89
2021/08/08 08:11:21;;;;;;;;;;;;;;;20.09;93.63;99518.04;1678822;84;20496;-90
2021/08/08 08:13:47;;;;;;;;;;;;;;;20.14;93.81;99526.72;1681929;84;20091;-90
2021/08/08 08:16:12;;;;;;;;;;;;;;;20.12;93.62;99542.23;1680278;84;20120;-89
2021/08/08 08:18:38;;;;;;;;;;;;;;;20.09;93.77;99523.40;1680742;84;20158;-90
2021/08/08 08:21:03;;;;;;;;;;;;;;;20.14;94.38;99534.77;1671530;84;21070;-90
2021/08/08 08:23:29;;;;;;;;;;;;;;;19.98;95.56;99549.69;1676456;84;20683;-90
2021/08/08 08:25:54;;;;;;;;;;;;;;;19.93;94.36;99554.91;1678231;84;20142;-90
2021/08/08 08:28:20;;;;;;;;;;;;;;;19.93;94.57;99550.09;1678717;83;20432;-90
2021/08/08 08:30:46;;;;;;;;;;;;;;;19.74;94.78;99557.66;1682652;84;20199;-90
2021/08/08 08:33:11;;;;;;;;;;;;;;;19.80;94.49;99552.47;1683883;84;21322;-90
2021/08/08 08:35:37;;;;;;;;;;;;;;;19.78;94.41;99542.48;1681222;84;20143;-90
2021/08/08 08:38:02;;;;;;;;;;;;;;;19.80;93.23;99560.52;1679329;84;20159;-90
2021/08/08 08:40:29;;;;;;;;;;;;;;;19.64;92.74;99561.45;1683674;84;20150;-91
2021/08/08 08:42:56;;;;;;;;;;;;;;;19.60;92.62;99547.41;1678928;84;20204;-90
2021/08/08 08:45:22;;;;;;;;;;;;;;;19.52;92.66;99567.30;1673778;84;21897;-90
2021/08/08 08:47:47;;;;;;;;;;;;;;;19.35;93.87;99566.60;1675734;84;20156;-90
2021/08/08 08:50:14;;;;;;;;;;;;;;;19.43;94.13;99570.01;1679972;84;20448;-89
2021/08/08 08:52:39;;;;;;;;;;;;;;;19.43;94.40;99576.70;1680779;83;20170;-90
2021/08/08 08:55:06;;;;;;;;;;;;;;;19.36;94.93;99582.16;1677361;83;20148;-90
2021/08/08 08:57:31;;;;;;;;;;;;;;;19.24;95.00;99591.48;1676018;84;21866;-89
2021/08/08 08:59:58;;;;;;;;;;;;;;;19.14;96.21;99605.91;1679193;84;20518;-90
2021/08/08 09:02:23;;;;;;;;;;;;;;;19.23;96.50;99617.95;1680182;84;20521;-89
2021/08/08 09:04:49;;;;;;;;;;;;;;;19.08;96.75;99617.02;1677341;84;20146;-89
2021/08/08 09:07:14;;;;;;;;;;;;;;;19.10;97.55;99613.59;1682929;84;20150;-89
2021/08/08 09:09:40;;;;;;;;;;;;;;;19.15;97.83;99616.39;1681712;84;21044;-90
2021/08/08 09:12:06;;;;;;;;;;;;;;;19.18;97.94;99628.52;1677744;84;20536;-90
2021/08/08 09:14:32;;;;;;;;;;;;;;;19.21;98.06;99650.02;1678322;84;20167;-90
2021/08/08 09:16:57;;;;;;;;;;;;;;;19.32;97.09;99657.28;1685678;84;20127;-90
2021/08/08 09:19:28;;;;;;;;;;;;;;;19.18;98.29;99665.47;1685627;83;20180;-90
2021/08/08 09:21:53;;;;;;;;;;;;;;;19.16;98.18;99665.41;1677177;83;21004;-90
2021/08/08 09:24:29;;;;;;;;;;;;;;;19.19;98.17;99648.91;1680942;84;20205;-89
2021/08/08 09:27:04;;;;;;;;;;;;;;;19.21;97.47;99663.40;1630460;85;20212;-90
2021/08/08 09:29:30;;;;;;;;;;;;;;;19.21;97.74;99669.56;1678785;84;20219;-90
2021/08/08 09:31:56;;;;;;;;;;;;;;;19.26;97.55;99691.64;1676576;84;20196;-90
2021/08/08 09:34:27;;;;;;;;;;;;;;;19.31;96.70;99677.05;1682502;84;21309;-90
2021/08/08 09:36:54;;;;;;;;;;;;;;;19.37;96.71;99679.67;1679233;84;20517;-90
2021/08/08 09:39:35;;;;;;;;;;;;;;;19.42;94.96;99684.84;1678643;83;20200;-90
2021/08/08 09:42:10;;;;;;;;;;;;;;;19.50;95.12;99679.20;1675443;84;20203;-90
2021/08/08 09:44:36;;;;;;;;;;;;;;;19.46;94.25;99689.52;1683140;84;20559;-90
2021/08/08 09:47:02;;;;;;;;;;;;;;;19.46;93.87;99710.14;1681354;85;21157;-90
2021/08/08 09:49:27;;;;;;;;;;;;;;;19.58;93.83;99700.80;1679795;83;20237;-89
2021/08/08 09:51:53;;;;;;;;;;;;;;;19.62;93.18;99702.80;1677087;84;20264;-91
2021/08/08 09:54:22;;;;;;;;;;;;;;;19.72;92.25;99715.14;1676909;85;20241;-90
2021/08/08 09:56:58;;;;;;;;;;;;;;;19.81;93.16;99715.69;1683870;83;20513;-91
2021/08/08 09:59:23;;;;;;;;;;;;;;;19.84;91.00;99723.77;1682111;84;21082;-90
2021/08/08 10:01:49;;;;;;;;;;;;;;;19.94;90.84;99730.75;1681946;84;20257;-90
2021/08/08 10:04:15;;;;;;;;;;;;;;;19.95;89.20;99735.58;1677572;84;20175;-90
2021/08/08 10:06:40;;;;;;;;;;;;;;;20.09;89.52;99737.84;1677397;85;20143;-90
2021/08/08 10:09:06;;;;;;;;;;;;;;;20.14;88.71;99726.97;1680477;85;20144;-90
2021/08/08 10:11:31;;;;;;;;;;;;;;;20.18;88.34;99734.33;1682870;84;20726;-91
2021/08/08 10:14:02;;;;;;;;;;;;;;;20.11;88.36;99739.49;1680471;85;37514;-89
2021/08/08 10:16:25;;;;;;;;;;;;;;;20.21;88.19;99749.12;1685728;85;20140;-89
2021/08/08 10:18:54;;;;;;;;;;;;;;;20.06;87.33;99749.03;1684695;84;20118;-89
2021/08/08 10:21:19;;;;;;;;;;;;;;;20.03;87.47;99760.20;1684108;84;20195;-89
2021/08/08 10:23:46;;;;;;;;;;;;;;;20.09;87.59;99752.59;1667031;85;21137;-89
2021/08/08 10:26:13;;;;;;;;;;;;;;;20.32;87.13;99753.68;1665395;85;20176;-89
2021/08/08 10:28:39;;;;;;;;;;;;;;;20.43;86.25;99755.59;1667002;84;20480;-89
2021/08/08 10:31:06;;;;;;;;;;;;;;;20.43;86.35;99758.27;1680281;84;20219;-90
2021/08/08 10:33:48;;;;;;;;;;;;;;;20.65;85.13;99765.80;1685726;83;20138;-90
2021/08/08 10:36:20;;;;;;;;;;;;;;;20.84;83.26;99768.38;1679805;84;21058;-91
2021/08/08 10:38:45;;;;;;;;;;;;;;;20.94;81.97;99792.75;1683880;83;20149;-88
2021/08/08 10:41:11;;;;;;;;;;;;;;;20.85;81.64;99789.61;1679932;84;20552;-90
2021/08/08 10:43:37;;;;;;;;;;;;;;;20.98;80.81;99783.19;1680912;84;20327;-91
2021/08/08 10:46:05;;;;;;;;;;;;;;;21.10;81.56;99783.16;1656637;84;20479;-90
2021/08/08 10:48:33;;;;;;;;;;;;;;;21.23;80.82;99791.52;1645840;86;21054;-90
2021/08/08 10:50:59;;;;;;;;;;;;;;;21.32;80.42;99795.48;1643094;86;20134;-91
2021/08/08 10:53:26;;;;;;;;;;;;;;;21.46;79.81;99800.88;1643849;85;20168;-91
2021/08/08 10:56:06;;;;;;;;;;;;;;;21.28;79.29;99801.83;1639259;85;20150;-91
2021/08/08 10:58:33;;;;;;;;;;;;;;;21.28;77.70;99806.39;1648463;85;20189;-90
2021/08/08 11:00:58;;;;;;;;;;;;;;;21.39;77.38;99809.58;1647014;86;21089;-91
2021/08/08 11:03:24;;;;;;;;;;;;;;;21.43;77.37;99801.34;1642284;86;20172;-92
2021/08/08 11:05:49;;;;;;;;;;;;;;;21.62;77.14;99825.41;1647113;86;20141;-91
2021/08/08 11:08:15;;;;;;;;;;;;;;;21.62;76.46;99820.03;1647691;86;20140;-90
2021/08/08 11:10:42;;;;;;;;;;;;;;;21.64;76.56;99832.70;1654999;85;20707;-90
2021/08/08 11:13:18;;;;;;;;;;;;;;;21.82;76.15;99825.81;1644164;86;21195;-90
2021/08/08 11:15:44;;;;;;;;;;;;;;;21.94;75.13;99850.50;1648308;86;20498;-90
2021/08/08 11:18:10;;;;;;;;;;;;;;;22.02;73.79;99841.53;1643549;85;20209;-89
2021/08/08 11:20:36;;;;;;;;;;;;;;;22.02;73.47;99839.39;1638549;85;20173;-91
2021/08/08 11:23:03;;;;;;;;;;;;;;;22.07;74.00;99843.51;1644870;86;20132;-90
2021/08/08 11:25:40;;;;;;;;;;;;;;;22.19;73.44;99850.20;1646801;86;21854;-90
2021/08/08 11:28:06;;;;;;;;;;;;;;;22.32;73.10;99843.73;1644358;85;20157;-91
2021/08/08 11:30:42;;;;;;;;;;;;;;;22.35;72.53;99848.63;1651965;86;20192;-90
2021/08/08 11:33:08;;;;;;;;;;;;;;;22.39;72.92;99843.06;1644686;86;20178;-89
2021/08/08 11:35:34;;;;;;;;;;;;;;;22.15;72.86;99853.88;1643398;85;20310;-90
2021/08/08 11:37:59;;;;;;;;;;;;;;;22.28;72.64;99843.88;1643692;86;21213;-89
2021/08/08 11:40:30;;;;;;;;;;;;;;;22.27;73.17;99845.77;1647930;85;20378;-89
2021/08/08 11:43:03;;;;;;;;;;;;;;;22.29;74.01;99850.91;1651897;85;20211;-88
2021/08/08 11:45:41;;;;;;;;;;;;;;;22.59;73.23;99851.48;1659351;84;20259;-89
2021/08/08 11:48:08;;;;;;;;;;;;;;;22.68;72.79;99853.23;1672596;84;20192;-90
2021/08/08 11:50:34;;;;;;;;;;;;;;;22.72;70.22;99857.61;1678478;84;21150;-90
2021/08/08 11:53:01;;;;;;;;;;;;;;;22.37;70.26;99855.92;1674970;83;20274;-90
2021/08/08 11:55:27;;;;;;;;;;;;;;;22.66;70.09;99850.52;1677103;84;20171;-90
2021/08/08 11:58:10;;;;;;;;;;;;;;;22.70;69.55;99852.98;1675569;85;20204;-91
2021/08/08 12:00:40;;;;;;;;;;;;;;;22.66;69.07;99858.59;1673452;84;20519;-91
2021/08/08 12:03:06;;;;;;;;;;;;;;;22.74;68.87;99865.71;1677487;83;21080;-91
2021/08/08 12:05:32;;;;;;;;;;;;;;;22.76;69.02;99875.73;1678489;84;20302;-91
2021/08/08 12:07:58;;;;;;;;;;;;;;;22.61;69.51;99870.59;1676279;85;20184;-91
2021/08/08 12:10:29;;;;;;;;;;;;;;;22.79;69.75;99881.13;1673683;84;21073;-91
2021/08/08 12:12:55;;;;;;;;;;;;;;;22.68;69.74;99879.34;1651333;85;20210;-91
2021/08/08 12:15:32;;;;;;;;;;;;;;;22.87;69.04;99884.80;1675472;84;21135;-90
2021/08/08 12:17:59;;;;;;;;;;;;;;;22.92;69.15;99882.17;1670126;83;20317;-89
2021/08/08 12:20:33;;;;;;;;;;;;;;;22.92;68.94;99882.17;1674149;83;20197;-90
2021/08/08 12:23:03;;;;;;;;;;;;;;;23.06;68.84;99873.78;1656758;84;20188;-90
2021/08/08 12:25:29;;;;;;;;;;;;;;;23.16;68.60;99871.25;1674680;85;20199;-90
2021/08/08 12:27:56;;;;;;;;;;;;;;;23.44;67.80;99870.84;1676403;85;21143;-91
2021/08/08 12:30:24;;;;;;;;;;;;;;;23.53;66.98;99880.14;1672574;85;20216;-89
2021/08/08 12:32:50;;;;;;;;;;;;;;;23.44;66.25;99882.98;1662153;85;20161;-89
2021/08/08 12:35:18;;;;;;;;;;;;;;;23.50;66.24;99880.64;1676490;85;20234;-90
2021/08/08 12:37:45;;;;;;;;;;;;;;;23.25;66.18;99897.26;1675280;85;20209;-90
2021/08/08 12:40:15;;;;;;;;;;;;;;;23.16;66.91;99898.19;1675975;84;21972;-89
2021/08/08 12:42:41;;;;;;;;;;;;;;;23.10;67.21;99905.91;1676909;84;20113;-91
2021/08/08 12:45:11;;;;;;;;;;;;;;;23.13;66.85;99901.37;1672779;84;20275;-91